sensor_id;sensor_type;location;lat;lon;timestamp;P1;durP1;ratioP1;P2;durP2;ratioP2
22378;SDS011;11357;49.990;7.370;2022-07-30T00:00:17;85.87;;;39.40;;
22378;SDS011;11357;49.990;7.370;2022-07-30T00:02:43;70.17;;;37.93;;
22378;SDS011;11357;49.990;7.370;2022-07-30T00:05:09;83.00;;;38.83;;
22378;SDS011;11357;49.990;7.370;2022-07-30T00:07:34;73.10;;;40.23;;
22378;SDS011;11357;49.990;7.370;2022-07-30T00:10:01;84.93;;;40.37;;
22378;SDS011;11357;49.990;7.370;2022-07-30T00:12:27;72.97;;;35.60;;
22378;SDS011;11357;49.990;7.370;2022-07-30T00:14:53;74.90;;;34.00;;
22378;SDS011;11357;49.990;7.370;2022-07-30T00:17:19;72.70;;;30.90;;
22378;SDS011;11357;49.990;7.370;2022-07-30T00:19:44;70.67;;;26.67;;
22378;SDS011;11357;49.990;7.370;2022-07-30T00:22:11;75.20;;;32.53;;
22378;SDS011;11357;49.990;7.370;2022-07-30T00:24:37;84.30;;;30.07;;
22378;SDS011;11357;49.990;7.370;2022-07-30T00:27:02;79.53;;;36.23;;
22378;SDS011;11357;49.990;7.370;2022-07-30T00:29:28;107.90;;;35.40;;
22378;SDS011;11357;49.990;7.370;2022-07-30T00:31:54;92.93;;;31.43;;
22378;SDS011;11357;49.990;7.370;2022-07-30T00:34:20;73.87;;;29.70;;
22378;SDS011;11357;49.990;7.370;2022-07-30T00:36:46;59.57;;;23.57;;
22378;SDS011;11357;49.990;7.370;2022-07-30T00:39:12;63.63;;;23.07;;
22378;SDS011;11357;49.990;7.370;2022-07-30T00:41:59;59.57;;;21.43;;
22378;SDS011;11357;49.990;7.370;2022-07-30T00:44:24;73.10;;;22.90;;
22378;SDS011;11357;49.990;7.370;2022-07-30T00:46:51;54.83;;;12.90;;
22378;SDS011;11357;49.990;7.370;2022-07-30T00:49:17;51.10;;;12.63;;
22378;SDS011;11357;49.990;7.370;2022-07-30T00:51:43;44.80;;;7.47;;
22378;SDS011;11357;49.990;7.370;2022-07-30T00:54:09;55.47;;;13.97;;
22378;SDS011;11357;49.990;7.370;2022-07-30T00:56:34;47.90;;;11.17;;
22378;SDS011;11357;49.990;7.370;2022-07-30T00:59:00;51.00;;;12.80;;
22378;SDS011;11357;49.990;7.370;2022-07-30T01:01:26;44.10;;;10.87;;
22378;SDS011;11357;49.990;7.370;2022-07-30T01:03:52;40.57;;;7.60;;
22378;SDS011;11357;49.990;7.370;2022-07-30T01:06:17;23.23;;;7.83;;
22378;SDS011;11357;49.990;7.370;2022-07-30T01:08:43;42.60;;;9.27;;
22378;SDS011;11357;49.990;7.370;2022-07-30T01:11:09;53.17;;;13.00;;
22378;SDS011;11357;49.990;7.370;2022-07-30T01:13:35;50.27;;;10.97;;
22378;SDS011;11357;49.990;7.370;2022-07-30T01:16:01;57.83;;;15.93;;
22378;SDS011;11357;49.990;7.370;2022-07-30T01:18:27;59.03;;;14.70;;
22378;SDS011;11357;49.990;7.370;2022-07-30T01:21:15;66.63;;;19.53;;
22378;SDS011;11357;49.990;7.370;2022-07-30T01:23:45;55.70;;;20.47;;
22378;SDS011;11357;49.990;7.370;2022-07-30T01:26:16;56.67;;;18.40;;
22378;SDS011;11357;49.990;7.370;2022-07-30T01:28:51;73.73;;;21.40;;
22378;SDS011;11357;49.990;7.370;2022-07-30T01:31:18;70.03;;;25.17;;
22378;SDS011;11357;49.990;7.370;2022-07-30T01:33:46;78.80;;;25.17;;
22378;SDS011;11357;49.990;7.370;2022-07-30T01:36:14;78.00;;;25.97;;
22378;SDS011;11357;49.990;7.370;2022-07-30T01:38:43;74.40;;;24.17;;
22378;SDS011;11357;49.990;7.370;2022-07-30T01:41:09;65.57;;;24.27;;
22378;SDS011;11357;49.990;7.370;2022-07-30T01:43:36;54.57;;;20.43;;
22378;SDS011;11357;49.990;7.370;2022-07-30T01:46:03;69.33;;;22.00;;
22378;SDS011;11357;49.990;7.370;2022-07-30T01:48:32;78.93;;;21.57;;
22378;SDS011;11357;49.990;7.370;2022-07-30T01:51:01;68.80;;;25.13;;
22378;SDS011;11357;49.990;7.370;2022-07-30T01:53:31;66.97;;;23.40;;
22378;SDS011;11357;49.990;7.370;2022-07-30T01:56:00;74.37;;;24.00;;
22378;SDS011;11357;49.990;7.370;2022-07-30T01:58:28;77.60;;;18.67;;
22378;SDS011;11357;49.990;7.370;2022-07-30T02:00:58;64.27;;;21.83;;
22378;SDS011;11357;49.990;7.370;2022-07-30T02:03:24;60.17;;;20.33;;
22378;SDS011;11357;49.990;7.370;2022-07-30T02:05:53;56.30;;;22.53;;
22378;SDS011;11357;49.990;7.370;2022-07-30T02:10:57;59.33;;;22.37;;
22378;SDS011;11357;49.990;7.370;2022-07-30T02:13:31;62.57;;;22.50;;
22378;SDS011;11357;49.990;7.370;2022-07-30T02:16:05;62.10;;;23.17;;
22378;SDS011;11357;49.990;7.370;2022-07-30T02:18:39;61.60;;;21.23;;
22378;SDS011;11357;49.990;7.370;2022-07-30T02:21:07;65.17;;;22.10;;
22378;SDS011;11357;49.990;7.370;2022-07-30T02:23:35;58.57;;;26.90;;
22378;SDS011;11357;49.990;7.370;2022-07-30T02:26:12;66.07;;;22.27;;
22378;SDS011;11357;49.990;7.370;2022-07-30T02:28:43;69.10;;;18.27;;
22378;SDS011;11357;49.990;7.370;2022-07-30T02:31:11;59.00;;;20.93;;
22378;SDS011;11357;49.990;7.370;2022-07-30T02:33:40;64.40;;;19.53;;
22378;SDS011;11357;49.990;7.370;2022-07-30T02:36:08;68.37;;;21.23;;
22378;SDS011;11357;49.990;7.370;2022-07-30T02:38:35;61.23;;;20.10;;
22378;SDS011;11357;49.990;7.370;2022-07-30T02:41:03;57.87;;;22.03;;
22378;SDS011;11357;49.990;7.370;2022-07-30T02:43:31;62.13;;;22.47;;
22378;SDS011;11357;49.990;7.370;2022-07-30T02:45:59;63.53;;;26.77;;
22378;SDS011;11357;49.990;7.370;2022-07-30T02:48:26;63.83;;;22.33;;
22378;SDS011;11357;49.990;7.370;2022-07-30T02:50:53;63.73;;;23.10;;
22378;SDS011;11357;49.990;7.370;2022-07-30T02:53:21;66.13;;;24.63;;
22378;SDS011;11357;49.990;7.370;2022-07-30T02:55:48;64.70;;;23.37;;
22378;SDS011;11357;49.990;7.370;2022-07-30T02:58:18;59.57;;;26.13;;
22378;SDS011;11357;49.990;7.370;2022-07-30T03:00:47;80.97;;;24.00;;
22378;SDS011;11357;49.990;7.370;2022-07-30T03:03:14;55.73;;;20.73;;
22378;SDS011;11357;49.990;7.370;2022-07-30T03:05:41;65.90;;;24.00;;
22378;SDS011;11357;49.990;7.370;2022-07-30T03:08:08;66.07;;;22.50;;
22378;SDS011;11357;49.990;7.370;2022-07-30T03:10:35;75.27;;;27.33;;
22378;SDS011;11357;49.990;7.370;2022-07-30T03:13:03;64.17;;;23.10;;
22378;SDS011;11357;49.990;7.370;2022-07-30T03:15:31;61.70;;;22.77;;
22378;SDS011;11357;49.990;7.370;2022-07-30T03:17:59;70.50;;;22.07;;
22378;SDS011;11357;49.990;7.370;2022-07-30T03:20:28;69.60;;;22.37;;
22378;SDS011;11357;49.990;7.370;2022-07-30T03:22:57;68.93;;;20.57;;
22378;SDS011;11357;49.990;7.370;2022-07-30T03:25:25;73.33;;;24.53;;
22378;SDS011;11357;49.990;7.370;2022-07-30T03:27:53;80.03;;;26.73;;
22378;SDS011;11357;49.990;7.370;2022-07-30T03:30:21;76.43;;;24.03;;
22378;SDS011;11357;49.990;7.370;2022-07-30T03:32:49;65.27;;;25.87;;
22378;SDS011;11357;49.990;7.370;2022-07-30T03:35:16;64.90;;;26.80;;
22378;SDS011;11357;49.990;7.370;2022-07-30T03:37:43;62.83;;;22.10;;
22378;SDS011;11357;49.990;7.370;2022-07-30T03:40:10;70.40;;;25.13;;
22378;SDS011;11357;49.990;7.370;2022-07-30T03:42:37;56.93;;;21.43;;
22378;SDS011;11357;49.990;7.370;2022-07-30T03:45:04;60.70;;;23.07;;
22378;SDS011;11357;49.990;7.370;2022-07-30T03:47:32;76.47;;;23.20;;
22378;SDS011;11357;49.990;7.370;2022-07-30T03:50:01;69.27;;;28.17;;
22378;SDS011;11357;49.990;7.370;2022-07-30T03:52:27;57.63;;;21.90;;
22378;SDS011;11357;49.990;7.370;2022-07-30T03:54:53;58.10;;;20.10;;
22378;SDS011;11357;49.990;7.370;2022-07-30T03:57:19;66.90;;;26.73;;
22378;SDS011;11357;49.990;7.370;2022-07-30T03:59:45;67.30;;;26.23;;
22378;SDS011;11357;49.990;7.370;2022-07-30T04:02:11;65.17;;;27.30;;
22378;SDS011;11357;49.990;7.370;2022-07-30T04:04:43;65.67;;;23.77;;
22378;SDS011;11357;49.990;7.370;2022-07-30T04:07:09;70.83;;;26.23;;
22378;SDS011;11357;49.990;7.370;2022-07-30T04:09:35;69.90;;;25.43;;
22378;SDS011;11357;49.990;7.370;2022-07-30T04:12:01;67.80;;;23.27;;
22378;SDS011;11357;49.990;7.370;2022-07-30T04:14:36;65.43;;;23.13;;
22378;SDS011;11357;49.990;7.370;2022-07-30T04:17:16;63.03;;;20.43;;
22378;SDS011;11357;49.990;7.370;2022-07-30T04:19:47;69.87;;;26.57;;
22378;SDS011;11357;49.990;7.370;2022-07-30T04:22:17;64.53;;;25.27;;
22378;SDS011;11357;49.990;7.370;2022-07-30T04:24:47;69.87;;;25.10;;
22378;SDS011;11357;49.990;7.370;2022-07-30T04:27:16;62.13;;;22.13;;
22378;SDS011;11357;49.990;7.370;2022-07-30T04:29:42;67.67;;;25.30;;
22378;SDS011;11357;49.990;7.370;2022-07-30T04:32:08;64.97;;;23.20;;
22378;SDS011;11357;49.990;7.370;2022-07-30T04:34:34;62.83;;;26.47;;
22378;SDS011;11357;49.990;7.370;2022-07-30T04:37:01;57.90;;;21.90;;
22378;SDS011;11357;49.990;7.370;2022-07-30T04:39:27;68.50;;;23.20;;
22378;SDS011;11357;49.990;7.370;2022-07-30T04:41:52;79.57;;;22.60;;
22378;SDS011;11357;49.990;7.370;2022-07-30T04:44:18;51.83;;;14.03;;
22378;SDS011;11357;49.990;7.370;2022-07-30T04:46:44;67.63;;;26.87;;
22378;SDS011;11357;49.990;7.370;2022-07-30T04:49:11;64.53;;;27.40;;
22378;SDS011;11357;49.990;7.370;2022-07-30T04:51:40;62.30;;;21.83;;
22378;SDS011;11357;49.990;7.370;2022-07-30T04:54:08;59.37;;;23.10;;
22378;SDS011;11357;49.990;7.370;2022-07-30T04:56:35;69.43;;;27.87;;
22378;SDS011;11357;49.990;7.370;2022-07-30T04:59:02;65.33;;;26.43;;
22378;SDS011;11357;49.990;7.370;2022-07-30T05:01:34;68.30;;;24.37;;
22378;SDS011;11357;49.990;7.370;2022-07-30T05:04:01;68.63;;;25.47;;
22378;SDS011;11357;49.990;7.370;2022-07-30T05:06:28;61.70;;;23.33;;
22378;SDS011;11357;49.990;7.370;2022-07-30T05:08:55;60.93;;;22.80;;
22378;SDS011;11357;49.990;7.370;2022-07-30T05:11:21;67.33;;;24.90;;
22378;SDS011;11357;49.990;7.370;2022-07-30T05:13:47;63.40;;;27.13;;
22378;SDS011;11357;49.990;7.370;2022-07-30T05:16:14;68.80;;;21.97;;
22378;SDS011;11357;49.990;7.370;2022-07-30T05:18:39;64.87;;;24.13;;
22378;SDS011;11357;49.990;7.370;2022-07-30T05:21:05;91.47;;;24.70;;
22378;SDS011;11357;49.990;7.370;2022-07-30T05:23:32;73.37;;;27.87;;
22378;SDS011;11357;49.990;7.370;2022-07-30T05:25:58;71.13;;;25.23;;
22378;SDS011;11357;49.990;7.370;2022-07-30T05:28:25;72.40;;;27.10;;
22378;SDS011;11357;49.990;7.370;2022-07-30T05:30:51;62.80;;;20.37;;
22378;SDS011;11357;49.990;7.370;2022-07-30T05:33:23;63.93;;;28.37;;
22378;SDS011;11357;49.990;7.370;2022-07-30T05:35:48;65.13;;;22.93;;
22378;SDS011;11357;49.990;7.370;2022-07-30T05:38:14;60.50;;;23.40;;
22378;SDS011;11357;49.990;7.370;2022-07-30T06:11:28;74.33;;;32.40;;
22378;SDS011;11357;49.990;7.370;2022-07-30T06:13:53;96.13;;;31.23;;
22378;SDS011;11357;49.990;7.370;2022-07-30T06:16:19;71.50;;;28.80;;
22378;SDS011;11357;49.990;7.370;2022-07-30T06:18:45;67.23;;;29.60;;
22378;SDS011;11357;49.990;7.370;2022-07-30T06:21:10;85.50;;;32.17;;
22378;SDS011;11357;49.990;7.370;2022-07-30T06:23:36;87.33;;;38.20;;
22378;SDS011;11357;49.990;7.370;2022-07-30T06:26:02;83.97;;;37.17;;
22378;SDS011;11357;49.990;7.370;2022-07-30T06:28:28;71.17;;;30.80;;
22378;SDS011;11357;49.990;7.370;2022-07-30T06:30:53;102.20;;;34.55;;
22378;SDS011;11357;49.990;7.370;2022-07-30T06:33:19;100.15;;;34.15;;
22378;SDS011;11357;49.990;7.370;2022-07-30T06:35:44;91.10;;;36.97;;
22378;SDS011;11357;49.990;7.370;2022-07-30T06:38:10;108.60;;;49.88;;
22378;SDS011;11357;49.990;7.370;2022-07-30T06:40:36;112.40;;;59.33;;
22378;SDS011;11357;49.990;7.370;2022-07-30T06:43:03;153.18;;;94.50;;
22378;SDS011;11357;49.990;7.370;2022-07-30T06:45:28;161.05;;;92.72;;
22378;SDS011;11357;49.990;7.370;2022-07-30T06:47:57;229.68;;;164.60;;
22378;SDS011;11357;49.990;7.370;2022-07-30T06:50:24;502.20;;;410.52;;
22378;SDS011;11357;49.990;7.370;2022-07-30T06:52:50;986.72;;;800.42;;
22378;SDS011;11357;49.990;7.370;2022-07-30T06:55:16;1420.85;;;934.47;;
22378;SDS011;11357;49.990;7.370;2022-07-30T06:57:42;1634.72;;;900.58;;
22378;SDS011;11357;49.990;7.370;2022-07-30T07:00:08;1984.18;;;981.63;;
22378;SDS011;11357;49.990;7.370;2022-07-30T07:02:34;1753.55;;;936.45;;
22378;SDS011;11357;49.990;7.370;2022-07-30T07:05:00;1999.90;;;870.08;;
22378;SDS011;11357;49.990;7.370;2022-07-30T07:07:26;1999.90;;;812.78;;
22378;SDS011;11357;49.990;7.370;2022-07-30T07:09:51;1999.90;;;955.05;;
22378;SDS011;11357;49.990;7.370;2022-07-30T07:12:17;1999.90;;;619.90;;
22378;SDS011;11357;49.990;7.370;2022-07-30T07:14:43;1999.90;;;734.65;;
22378;SDS011;11357;49.990;7.370;2022-07-30T07:17:08;1999.90;;;985.78;;
22378;SDS011;11357;49.990;7.370;2022-07-30T07:19:35;1999.90;;;942.70;;
22378;SDS011;11357;49.990;7.370;2022-07-30T07:22:01;1999.90;;;912.47;;
22378;SDS011;11357;49.990;7.370;2022-07-30T07:24:27;1999.90;;;987.25;;
22378;SDS011;11357;49.990;7.370;2022-07-30T07:26:53;1999.90;;;638.65;;
22378;SDS011;11357;49.990;7.370;2022-07-30T07:29:18;1999.90;;;789.40;;
22378;SDS011;11357;49.990;7.370;2022-07-30T07:31:44;1999.90;;;860.75;;
22378;SDS011;11357;49.990;7.370;2022-07-30T07:34:10;1999.90;;;727.75;;
22378;SDS011;11357;49.990;7.370;2022-07-30T07:36:36;1999.90;;;611.97;;
22378;SDS011;11357;49.990;7.370;2022-07-30T07:39:03;1999.90;;;390.60;;
22378;SDS011;11357;49.990;7.370;2022-07-30T07:41:33;1925.43;;;825.67;;
22378;SDS011;11357;49.990;7.370;2022-07-30T07:44:02;1999.90;;;999.90;;
22378;SDS011;11357;49.990;7.370;2022-07-30T07:46:29;1999.90;;;999.90;;
22378;SDS011;11357;49.990;7.370;2022-07-30T07:48:55;1876.47;;;986.05;;
22378;SDS011;11357;49.990;7.370;2022-07-30T07:51:21;1985.82;;;862.28;;
22378;SDS011;11357;49.990;7.370;2022-07-30T07:53:47;1999.90;;;999.90;;
22378;SDS011;11357;49.990;7.370;2022-07-30T07:56:13;1027.43;;;821.92;;
22378;SDS011;11357;49.990;7.370;2022-07-30T07:58:39;104.93;;;98.88;;
22378;SDS011;11357;49.990;7.370;2022-07-30T08:01:05;27.30;;;25.25;;
22378;SDS011;11357;49.990;7.370;2022-07-30T08:03:31;298.27;;;279.58;;
22378;SDS011;11357;49.990;7.370;2022-07-30T08:05:56;131.43;;;123.53;;
22378;SDS011;11357;49.990;7.370;2022-07-30T08:08:22;100.00;;;93.85;;
22378;SDS011;11357;49.990;7.370;2022-07-30T08:10:48;333.95;;;310.85;;
22378;SDS011;11357;49.990;7.370;2022-07-30T08:13:14;238.52;;;224.15;;
22378;SDS011;11357;49.990;7.370;2022-07-30T08:15:40;92.85;;;87.28;;
22378;SDS011;11357;49.990;7.370;2022-07-30T08:18:06;7.15;;;5.65;;
22378;SDS011;11357;49.990;7.370;2022-07-30T08:20:33;4.72;;;4.10;;
22378;SDS011;11357;49.990;7.370;2022-07-30T08:22:59;4.95;;;3.03;;
22378;SDS011;11357;49.990;7.370;2022-07-30T08:25:26;13.48;;;4.18;;
22378;SDS011;11357;49.990;7.370;2022-07-30T08:27:52;7.35;;;3.50;;
22378;SDS011;11357;49.990;7.370;2022-07-30T08:30:18;8.25;;;4.18;;
22378;SDS011;11357;49.990;7.370;2022-07-30T08:32:43;6.82;;;3.00;;
22378;SDS011;11357;49.990;7.370;2022-07-30T08:35:09;9.68;;;3.08;;
22378;SDS011;11357;49.990;7.370;2022-07-30T08:37:35;7.78;;;3.05;;
22378;SDS011;11357;49.990;7.370;2022-07-30T08:40:02;5.10;;;2.50;;
22378;SDS011;11357;49.990;7.370;2022-07-30T08:42:28;6.47;;;2.67;;
22378;SDS011;11357;49.990;7.370;2022-07-30T08:44:58;5.43;;;2.08;;
22378;SDS011;11357;49.990;7.370;2022-07-30T08:47:25;6.80;;;2.50;;
22378;SDS011;11357;49.990;7.370;2022-07-30T08:49:55;4.55;;;2.70;;
22378;SDS011;11357;49.990;7.370;2022-07-30T08:52:26;6.13;;;3.05;;
22378;SDS011;11357;49.990;7.370;2022-07-30T08:54:52;6.25;;;2.50;;
22378;SDS011;11357;49.990;7.370;2022-07-30T08:57:19;5.32;;;2.60;;
22378;SDS011;11357;49.990;7.370;2022-07-30T08:59:45;3.53;;;2.30;;
22378;SDS011;11357;49.990;7.370;2022-07-30T09:02:12;5.57;;;2.40;;
22378;SDS011;11357;49.990;7.370;2022-07-30T09:04:38;3.92;;;2.25;;
22378;SDS011;11357;49.990;7.370;2022-07-30T09:07:04;3.13;;;2.13;;
22378;SDS011;11357;49.990;7.370;2022-07-30T09:09:29;4.85;;;2.00;;
22378;SDS011;11357;49.990;7.370;2022-07-30T09:11:55;5.05;;;1.58;;
22378;SDS011;11357;49.990;7.370;2022-07-30T09:14:21;5.28;;;2.35;;
22378;SDS011;11357;49.990;7.370;2022-07-30T09:16:47;3.90;;;1.98;;
22378;SDS011;11357;49.990;7.370;2022-07-30T09:19:21;5.63;;;2.20;;
22378;SDS011;11357;49.990;7.370;2022-07-30T09:21:54;5.72;;;2.17;;
22378;SDS011;11357;49.990;7.370;2022-07-30T09:24:20;6.85;;;2.60;;
22378;SDS011;11357;49.990;7.370;2022-07-30T09:26:56;8.63;;;2.92;;
22378;SDS011;11357;49.990;7.370;2022-07-30T09:29:30;4.13;;;2.50;;
22378;SDS011;11357;49.990;7.370;2022-07-30T09:32:04;5.00;;;2.40;;
22378;SDS011;11357;49.990;7.370;2022-07-30T09:37:02;5.88;;;2.88;;
22378;SDS011;11357;49.990;7.370;2022-07-30T09:39:30;6.93;;;2.63;;
22378;SDS011;11357;49.990;7.370;2022-07-30T09:42:01;6.63;;;2.15;;
22378;SDS011;11357;49.990;7.370;2022-07-30T09:44:28;4.55;;;1.92;;
22378;SDS011;11357;49.990;7.370;2022-07-30T09:46:55;6.30;;;2.63;;
22378;SDS011;11357;49.990;7.370;2022-07-30T09:49:23;5.55;;;2.60;;
22378;SDS011;11357;49.990;7.370;2022-07-30T09:51:53;6.53;;;2.42;;
22378;SDS011;11357;49.990;7.370;2022-07-30T09:54:19;5.70;;;2.00;;
22378;SDS011;11357;49.990;7.370;2022-07-30T09:56:46;5.78;;;2.35;;
22378;SDS011;11357;49.990;7.370;2022-07-30T09:59:24;7.30;;;2.47;;
22378;SDS011;11357;49.990;7.370;2022-07-30T10:01:52;5.53;;;2.08;;
22378;SDS011;11357;49.990;7.370;2022-07-30T10:04:29;4.28;;;1.90;;
22378;SDS011;11357;49.990;7.370;2022-07-30T10:06:57;2.45;;;1.52;;
22378;SDS011;11357;49.990;7.370;2022-07-30T10:09:31;5.40;;;1.65;;
22378;SDS011;11357;49.990;7.370;2022-07-30T10:12:01;13.20;;;2.30;;
22378;SDS011;11357;49.990;7.370;2022-07-30T10:14:32;9.82;;;2.58;;
22378;SDS011;11357;49.990;7.370;2022-07-30T10:16:59;8.00;;;2.20;;
22378;SDS011;11357;49.990;7.370;2022-07-30T10:19:25;7.55;;;1.98;;
22378;SDS011;11357;49.990;7.370;2022-07-30T10:21:52;6.10;;;2.03;;
22378;SDS011;11357;49.990;7.370;2022-07-30T10:24:22;11.60;;;2.10;;
22378;SDS011;11357;49.990;7.370;2022-07-30T10:26:50;4.82;;;2.03;;
22378;SDS011;11357;49.990;7.370;2022-07-30T10:29:18;3.92;;;1.95;;
22378;SDS011;11357;49.990;7.370;2022-07-30T10:31:48;5.15;;;2.15;;
22378;SDS011;11357;49.990;7.370;2022-07-30T10:34:16;3.47;;;1.55;;
22378;SDS011;11357;49.990;7.370;2022-07-30T10:36:44;6.43;;;1.83;;
22378;SDS011;11357;49.990;7.370;2022-07-30T10:39:14;2.45;;;1.55;;
22378;SDS011;11357;49.990;7.370;2022-07-30T10:45:02;6.05;;;1.50;;
22378;SDS011;11357;49.990;7.370;2022-07-30T10:47:47;3.97;;;1.80;;
22378;SDS011;11357;49.990;7.370;2022-07-30T10:50:15;3.53;;;1.65;;
22378;SDS011;11357;49.990;7.370;2022-07-30T10:52:56;3.28;;;1.55;;
22378;SDS011;11357;49.990;7.370;2022-07-30T10:55:31;5.60;;;1.70;;
22378;SDS011;11357;49.990;7.370;2022-07-30T11:00:33;4.97;;;1.70;;
22378;SDS011;11357;49.990;7.370;2022-07-30T11:03:11;7.82;;;1.88;;
22378;SDS011;11357;49.990;7.370;2022-07-30T11:05:41;6.55;;;1.80;;
22378;SDS011;11357;49.990;7.370;2022-07-30T11:10:56;2.28;;;1.63;;
22378;SDS011;11357;49.990;7.370;2022-07-30T11:14:04;8.63;;;1.60;;
22378;SDS011;11357;49.990;7.370;2022-07-30T11:16:17;2.20;;;1.40;;
22378;SDS011;11357;49.990;7.370;2022-07-30T11:21:45;5.30;;;1.42;;
22378;SDS011;11357;49.990;7.370;2022-07-30T11:24:41;3.80;;;1.60;;
22378;SDS011;11357;49.990;7.370;2022-07-30T11:27:08;5.72;;;1.75;;
22378;SDS011;11357;49.990;7.370;2022-07-30T11:29:38;4.18;;;1.42;;
22378;SDS011;11357;49.990;7.370;2022-07-30T11:37:57;6.55;;;1.88;;
22378;SDS011;11357;49.990;7.370;2022-07-30T11:40:23;2.08;;;1.40;;
22378;SDS011;11357;49.990;7.370;2022-07-30T11:42:51;2.92;;;1.30;;
22378;SDS011;11357;49.990;7.370;2022-07-30T11:45:36;7.68;;;1.50;;
22378;SDS011;11357;49.990;7.370;2022-07-30T11:48:05;2.42;;;1.25;;
22378;SDS011;11357;49.990;7.370;2022-07-30T11:50:35;2.17;;;1.40;;
22378;SDS011;11357;49.990;7.370;2022-07-30T11:53:04;3.60;;;1.10;;
22378;SDS011;11357;49.990;7.370;2022-07-30T11:55:38;1.42;;;1.08;;
22378;SDS011;11357;49.990;7.370;2022-07-30T11:58:21;2.85;;;1.10;;
22378;SDS011;11357;49.990;7.370;2022-07-30T12:00:51;1.55;;;1.15;;
22378;SDS011;11357;49.990;7.370;2022-07-30T12:03:19;5.57;;;1.10;;
22378;SDS011;11357;49.990;7.370;2022-07-30T12:05:46;2.05;;;1.10;;
22378;SDS011;11357;49.990;7.370;2022-07-30T12:08:12;4.38;;;1.20;;
22378;SDS011;11357;49.990;7.370;2022-07-30T12:10:40;4.10;;;1.10;;
22378;SDS011;11357;49.990;7.370;2022-07-30T12:13:07;6.20;;;1.10;;
22378;SDS011;11357;49.990;7.370;2022-07-30T12:15:38;6.30;;;1.00;;
22378;SDS011;11357;49.990;7.370;2022-07-30T12:18:05;1.70;;;1.10;;
22378;SDS011;11357;49.990;7.370;2022-07-30T12:20:32;5.63;;;1.20;;
22378;SDS011;11357;49.990;7.370;2022-07-30T12:22:57;2.05;;;0.98;;
22378;SDS011;11357;49.990;7.370;2022-07-30T12:25:23;2.13;;;0.70;;
22378;SDS011;11357;49.990;7.370;2022-07-30T12:27:49;5.47;;;1.00;;
22378;SDS011;11357;49.990;7.370;2022-07-30T12:30:16;4.90;;;1.20;;
22378;SDS011;11357;49.990;7.370;2022-07-30T12:32:43;2.42;;;1.08;;
22378;SDS011;11357;49.990;7.370;2022-07-30T12:35:09;3.08;;;1.23;;
22378;SDS011;11357;49.990;7.370;2022-07-30T12:37:35;2.55;;;0.90;;
22378;SDS011;11357;49.990;7.370;2022-07-30T12:42:35;2.13;;;0.90;;
22378;SDS011;11357;49.990;7.370;2022-07-30T12:45:02;3.00;;;1.30;;
22378;SDS011;11357;49.990;7.370;2022-07-30T12:47:28;2.42;;;0.95;;
22378;SDS011;11357;49.990;7.370;2022-07-30T12:49:58;1.20;;;0.90;;
22378;SDS011;11357;49.990;7.370;2022-07-30T12:52:31;2.47;;;0.85;;
22378;SDS011;11357;49.990;7.370;2022-07-30T12:54:59;0.98;;;0.80;;
22378;SDS011;11357;49.990;7.370;2022-07-30T12:57:50;0.98;;;0.80;;
22378;SDS011;11357;49.990;7.370;2022-07-30T13:00:29;1.80;;;0.73;;
22378;SDS011;11357;49.990;7.370;2022-07-30T13:03:18;1.35;;;1.00;;
22378;SDS011;11357;49.990;7.370;2022-07-30T13:05:49;1.23;;;0.60;;
22378;SDS011;11357;49.990;7.370;2022-07-30T13:08:16;2.10;;;1.45;;
22378;SDS011;11357;49.990;7.370;2022-07-30T13:10:58;2.47;;;1.15;;
22378;SDS011;11357;49.990;7.370;2022-07-30T13:13:28;2.92;;;0.90;;
22378;SDS011;11357;49.990;7.370;2022-07-30T13:15:56;1.58;;;0.80;;
22378;SDS011;11357;49.990;7.370;2022-07-30T13:18:23;1.35;;;0.98;;
22378;SDS011;11357;49.990;7.370;2022-07-30T13:20:49;1.27;;;1.17;;
22378;SDS011;11357;49.990;7.370;2022-07-30T13:23:15;1.85;;;0.90;;
22378;SDS011;11357;49.990;7.370;2022-07-30T13:25:41;1.00;;;0.90;;
22378;SDS011;11357;49.990;7.370;2022-07-30T13:28:07;2.17;;;0.70;;
22378;SDS011;11357;49.990;7.370;2022-07-30T13:30:32;2.58;;;0.63;;
22378;SDS011;11357;49.990;7.370;2022-07-30T13:32:58;0.63;;;0.63;;
22378;SDS011;11357;49.990;7.370;2022-07-30T13:35:24;0.60;;;0.60;;
22378;SDS011;11357;49.990;7.370;2022-07-30T13:37:49;3.45;;;0.60;;
22378;SDS011;11357;49.990;7.370;2022-07-30T13:40:15;4.30;;;0.88;;
22378;SDS011;11357;49.990;7.370;2022-07-30T13:42:40;1.35;;;0.95;;
22378;SDS011;11357;49.990;7.370;2022-07-30T13:45:06;2.20;;;0.70;;
22378;SDS011;11357;49.990;7.370;2022-07-30T13:47:32;1.38;;;1.00;;
22378;SDS011;11357;49.990;7.370;2022-07-30T13:49:58;1.15;;;0.80;;
22378;SDS011;11357;49.990;7.370;2022-07-30T13:52:24;10.20;;;0.85;;
22378;SDS011;11357;49.990;7.370;2022-07-30T13:54:49;1.60;;;0.70;;
22378;SDS011;11357;49.990;7.370;2022-07-30T13:57:17;1.85;;;0.70;;
22378;SDS011;11357;49.990;7.370;2022-07-30T13:59:43;4.00;;;0.82;;
22378;SDS011;11357;49.990;7.370;2022-07-30T14:02:09;0.82;;;0.60;;
22378;SDS011;11357;49.990;7.370;2022-07-30T14:04:34;1.80;;;0.70;;
22378;SDS011;11357;49.990;7.370;2022-07-30T14:07:00;0.93;;;0.77;;
22378;SDS011;11357;49.990;7.370;2022-07-30T14:09:26;1.02;;;0.73;;
22378;SDS011;11357;49.990;7.370;2022-07-30T14:11:52;0.98;;;0.70;;
22378;SDS011;11357;49.990;7.370;2022-07-30T14:14:19;0.82;;;0.80;;
22378;SDS011;11357;49.990;7.370;2022-07-30T14:16:46;2.40;;;0.70;;
22378;SDS011;11357;49.990;7.370;2022-07-30T14:19:14;2.60;;;0.70;;
22378;SDS011;11357;49.990;7.370;2022-07-30T14:21:42;2.33;;;0.85;;
22378;SDS011;11357;49.990;7.370;2022-07-30T14:24:08;3.50;;;0.70;;
22378;SDS011;11357;49.990;7.370;2022-07-30T14:26:36;2.40;;;0.90;;
22378;SDS011;11357;49.990;7.370;2022-07-30T14:29:03;1.63;;;0.80;;
22378;SDS011;11357;49.990;7.370;2022-07-30T14:31:30;2.08;;;1.00;;
22378;SDS011;11357;49.990;7.370;2022-07-30T14:33:56;0.82;;;0.80;;
22378;SDS011;11357;49.990;7.370;2022-07-30T14:36:22;1.05;;;0.80;;
22378;SDS011;11357;49.990;7.370;2022-07-30T14:38:49;1.63;;;0.80;;
22378;SDS011;11357;49.990;7.370;2022-07-30T14:41:15;1.98;;;0.60;;
22378;SDS011;11357;49.990;7.370;2022-07-30T14:43:41;1.83;;;0.63;;
22378;SDS011;11357;49.990;7.370;2022-07-30T14:46:06;1.27;;;0.60;;
22378;SDS011;11357;49.990;7.370;2022-07-30T14:48:32;2.85;;;0.70;;
22378;SDS011;11357;49.990;7.370;2022-07-30T14:50:58;0.75;;;0.75;;
22378;SDS011;11357;49.990;7.370;2022-07-30T14:53:25;3.13;;;1.00;;
22378;SDS011;11357;49.990;7.370;2022-07-30T14:55:51;4.40;;;1.05;;
22378;SDS011;11357;49.990;7.370;2022-07-30T14:58:17;1.50;;;0.90;;
22378;SDS011;11357;49.990;7.370;2022-07-30T15:00:42;3.63;;;1.15;;
22378;SDS011;11357;49.990;7.370;2022-07-30T15:03:08;6.50;;;1.80;;
22378;SDS011;11357;49.990;7.370;2022-07-30T15:05:35;4.10;;;1.65;;
22378;SDS011;11357;49.990;7.370;2022-07-30T15:08:00;5.63;;;1.60;;
22378;SDS011;11357;49.990;7.370;2022-07-30T15:10:26;4.68;;;2.10;;
22378;SDS011;11357;49.990;7.370;2022-07-30T15:12:52;4.72;;;1.75;;
22378;SDS011;11357;49.990;7.370;2022-07-30T15:15:17;3.83;;;2.17;;
22378;SDS011;11357;49.990;7.370;2022-07-30T15:17:43;6.88;;;2.15;;
22378;SDS011;11357;49.990;7.370;2022-07-30T15:20:09;7.45;;;1.88;;
22378;SDS011;11357;49.990;7.370;2022-07-30T15:22:36;4.63;;;2.15;;
22378;SDS011;11357;49.990;7.370;2022-07-30T15:25:02;2.72;;;1.92;;
22378;SDS011;11357;49.990;7.370;2022-07-30T15:27:29;7.35;;;2.38;;
22378;SDS011;11357;49.990;7.370;2022-07-30T15:29:54;4.32;;;2.10;;